sensor_id;sensor_type;location;lat;lon;timestamp;temperature;humidity
56374;DHT22;58212;47.034;7.376;2022-09-12T00:00:51;14.50;99.90
56374;DHT22;58212;47.034;7.376;2022-09-12T00:03:28;14.50;99.90
56374;DHT22;58212;47.034;7.376;2022-09-12T00:05:56;14.50;99.90
56374;DHT22;58212;47.034;7.376;2022-09-12T00:08:25;14.50;99.90
56374;DHT22;58212;47.034;7.376;2022-09-12T00:10:52;14.50;99.90
56374;DHT22;58212;47.034;7.376;2022-09-12T00:13:19;14.50;99.90
56374;DHT22;58212;47.034;7.376;2022-09-12T00:15:48;14.50;99.90
56374;DHT22;58212;47.034;7.376;2022-09-12T00:18:16;14.40;99.90
56374;DHT22;58212;47.034;7.376;2022-09-12T00:20:44;14.30;99.90
56374;DHT22;58212;47.034;7.376;2022-09-12T00:23:13;14.40;99.90
56374;DHT22;58212;47.034;7.376;2022-09-12T00:25:41;14.50;99.90
56374;DHT22;58212;47.034;7.376;2022-09-12T00:28:08;14.40;99.90
56374;DHT22;58212;47.034;7.376;2022-09-12T00:30:40;14.30;99.90
56374;DHT22;58212;47.034;7.376;2022-09-12T00:33:07;14.30;99.90
56374;DHT22;58212;47.034;7.376;2022-09-12T00:35:41;14.40;99.90
56374;DHT22;58212;47.034;7.376;2022-09-12T00:38:09;14.40;99.90
56374;DHT22;58212;47.034;7.376;2022-09-12T00:40:40;14.40;99.90
56374;DHT22;58212;47.034;7.376;2022-09-12T00:43:11;14.40;99.90
56374;DHT22;58212;47.034;7.376;2022-09-12T00:45:39;14.30;99.90
56374;DHT22;58212;47.034;7.376;2022-09-12T00:48:19;14.30;99.90
56374;DHT22;58212;47.034;7.376;2022-09-12T00:50:47;14.30;99.90
56374;DHT22;58212;47.034;7.376;2022-09-12T00:53:17;14.20;99.90
56374;DHT22;58212;47.034;7.376;2022-09-12T00:55:49;14.10;99.90
56374;DHT22;58212;47.034;7.376;2022-09-12T00:58:20;14.10;99.90
56374;DHT22;58212;47.034;7.376;2022-09-12T01:00:49;14.00;99.90
56374;DHT22;58212;47.034;7.376;2022-09-12T01:03:19;13.90;99.90
56374;DHT22;58212;47.034;7.376;2022-09-12T01:05:53;14.00;99.90
56374;DHT22;58212;47.034;7.376;2022-09-12T01:08:24;14.00;99.90
56374;DHT22;58212;47.034;7.376;2022-09-12T01:10:53;14.00;99.90
56374;DHT22;58212;47.034;7.376;2022-09-12T01:13:21;13.90;99.90
56374;DHT22;58212;47.034;7.376;2022-09-12T01:15:49;13.80;99.90
56374;DHT22;58212;47.034;7.376;2022-09-12T01:18:21;13.80;99.90
56374;DHT22;58212;47.034;7.376;2022-09-12T01:20:58;13.70;99.90
56374;DHT22;58212;47.034;7.376;2022-09-12T01:26:57;14.00;99.90
56374;DHT22;58212;47.034;7.376;2022-09-12T01:30:04;14.00;99.90
56374;DHT22;58212;47.034;7.376;2022-09-12T01:32:49;13.90;99.90
56374;DHT22;58212;47.034;7.376;2022-09-12T01:35:23;13.90;99.90
56374;DHT22;58212;47.034;7.376;2022-09-12T01:38:01;13.80;99.90
56374;DHT22;58212;47.034;7.376;2022-09-12T01:40:38;13.80;99.90
56374;DHT22;58212;47.034;7.376;2022-09-12T01:43:17;13.80;99.90
56374;DHT22;58212;47.034;7.376;2022-09-12T01:45:52;13.80;99.90
56374;DHT22;58212;47.034;7.376;2022-09-12T01:48:26;13.70;99.90
56374;DHT22;58212;47.034;7.376;2022-09-12T01:50:59;13.70;99.90
56374;DHT22;58212;47.034;7.376;2022-09-12T01:53:33;13.60;99.90
56374;DHT22;58212;47.034;7.376;2022-09-12T01:56:06;13.60;99.90
56374;DHT22;58212;47.034;7.376;2022-09-12T01:58:38;13.50;99.90
56374;DHT22;58212;47.034;7.376;2022-09-12T02:01:11;13.40;99.90
56374;DHT22;58212;47.034;7.376;2022-09-12T02:03:45;13.60;99.90
56374;DHT22;58212;47.034;7.376;2022-09-12T02:06:17;13.70;99.90
56374;DHT22;58212;47.034;7.376;2022-09-12T02:08:48;13.70;99.90
56374;DHT22;58212;47.034;7.376;2022-09-12T02:11:16;13.60;99.90
56374;DHT22;58212;47.034;7.376;2022-09-12T02:13:48;13.60;99.90
56374;DHT22;58212;47.034;7.376;2022-09-12T02:16:20;13.60;99.90
56374;DHT22;58212;47.034;7.376;2022-09-12T02:18:53;13.50;99.90
56374;DHT22;58212;47.034;7.376;2022-09-12T02:21:25;13.60;99.90
56374;DHT22;58212;47.034;7.376;2022-09-12T02:23:57;13.50;99.90
56374;DHT22;58212;47.034;7.376;2022-09-12T02:26:30;13.50;99.90
56374;DHT22;58212;47.034;7.376;2022-09-12T02:29:02;13.50;99.90
56374;DHT22;58212;47.034;7.376;2022-09-12T02:31:36;13.50;99.90
56374;DHT22;58212;47.034;7.376;2022-09-12T02:34:18;13.40;99.90
56374;DHT22;58212;47.034;7.376;2022-09-12T02:36:53;13.40;99.90
56374;DHT22;58212;47.034;7.376;2022-09-12T02:39:25;13.40;99.90
56374;DHT22;58212;47.034;7.376;2022-09-12T02:41:54;13.40;99.90
56374;DHT22;58212;47.034;7.376;2022-09-12T02:44:23;13.40;99.90
56374;DHT22;58212;47.034;7.376;2022-09-12T02:46:55;13.40;99.90
56374;DHT22;58212;47.034;7.376;2022-09-12T02:49:24;13.40;99.90
56374;DHT22;58212;47.034;7.376;2022-09-12T02:51:51;13.30;99.90
56374;DHT22;58212;47.034;7.376;2022-09-12T02:54:19;13.20;99.90
56374;DHT22;58212;47.034;7.376;2022-09-12T02:56:47;13.20;99.90
56374;DHT22;58212;47.034;7.376;2022-09-12T02:59:16;13.20;99.90
56374;DHT22;58212;47.034;7.376;2022-09-12T03:01:59;13.20;99.90
56374;DHT22;58212;47.034;7.376;2022-09-12T03:04:48;13.20;99.90
56374;DHT22;58212;47.034;7.376;2022-09-12T03:07:29;13.20;99.90
56374;DHT22;58212;47.034;7.376;2022-09-12T03:10:08;13.20;99.90
56374;DHT22;58212;47.034;7.376;2022-09-12T03:12:46;13.20;99.90
56374;DHT22;58212;47.034;7.376;2022-09-12T03:15:27;13.20;99.90
56374;DHT22;58212;47.034;7.376;2022-09-12T03:18:03;13.20;99.90
56374;DHT22;58212;47.034;7.376;2022-09-12T03:20:41;13.20;99.90
56374;DHT22;58212;47.034;7.376;2022-09-12T03:23:17;13.20;99.90
56374;DHT22;58212;47.034;7.376;2022-09-12T03:25:48;13.10;99.90
56374;DHT22;58212;47.034;7.376;2022-09-12T03:28:19;13.00;99.90
56374;DHT22;58212;47.034;7.376;2022-09-12T03:30:48;13.00;99.90
56374;DHT22;58212;47.034;7.376;2022-09-12T03:33:17;13.00;99.90
56374;DHT22;58212;47.034;7.376;2022-09-12T03:35:49;12.90;99.90
56374;DHT22;58212;47.034;7.376;2022-09-12T03:38:16;12.90;99.90
56374;DHT22;58212;47.034;7.376;2022-09-12T03:40:44;12.90;99.90
56374;DHT22;58212;47.034;7.376;2022-09-12T03:43:11;12.90;99.90
56374;DHT22;58212;47.034;7.376;2022-09-12T03:45:38;13.00;99.90
56374;DHT22;58212;47.034;7.376;2022-09-12T03:48:06;12.90;99.90
56374;DHT22;58212;47.034;7.376;2022-09-12T03:50:33;12.80;99.90
56374;DHT22;58212;47.034;7.376;2022-09-12T03:53:01;12.70;99.90
56374;DHT22;58212;47.034;7.376;2022-09-12T03:55:29;12.70;99.90
56374;DHT22;58212;47.034;7.376;2022-09-12T03:57:58;12.60;99.90
56374;DHT22;58212;47.034;7.376;2022-09-12T04:00:27;12.60;99.90
56374;DHT22;58212;47.034;7.376;2022-09-12T04:02:55;12.60;99.90
56374;DHT22;58212;47.034;7.376;2022-09-12T04:05:23;12.50;99.90
56374;DHT22;58212;47.034;7.376;2022-09-12T04:07:51;12.50;99.90
56374;DHT22;58212;47.034;7.376;2022-09-12T04:10:19;12.40;99.90
56374;DHT22;58212;47.034;7.376;2022-09-12T04:12:47;12.50;99.90
56374;DHT22;58212;47.034;7.376;2022-09-12T04:15:16;12.60;99.90
56374;DHT22;58212;47.034;7.376;2022-09-12T04:17:43;12.60;99.90
56374;DHT22;58212;47.034;7.376;2022-09-12T04:20:12;12.60;99.90
56374;DHT22;58212;47.034;7.376;2022-09-12T04:22:40;12.60;99.90
56374;DHT22;58212;47.034;7.376;2022-09-12T04:25:08;12.60;99.90
56374;DHT22;58212;47.034;7.376;2022-09-12T04:27:37;12.60;99.90
56374;DHT22;58212;47.034;7.376;2022-09-12T04:30:06;12.50;99.90
56374;DHT22;58212;47.034;7.376;2022-09-12T04:32:33;12.50;99.90
56374;DHT22;58212;47.034;7.376;2022-09-12T04:35:00;12.50;99.90
56374;DHT22;58212;47.034;7.376;2022-09-12T04:37:27;12.50;99.90
56374;DHT22;58212;47.034;7.376;2022-09-12T04:39:54;12.50;99.90
56374;DHT22;58212;47.034;7.376;2022-09-12T04:42:22;12.60;99.90
56374;DHT22;58212;47.034;7.376;2022-09-12T04:44:51;12.70;99.90
56374;DHT22;58212;47.034;7.376;2022-09-12T04:47:18;12.60;99.90
56374;DHT22;58212;47.034;7.376;2022-09-12T04:49:45;12.50;99.90
56374;DHT22;58212;47.034;7.376;2022-09-12T04:52:12;12.50;99.90
56374;DHT22;58212;47.034;7.376;2022-09-12T04:54:41;12.50;99.90
56374;DHT22;58212;47.034;7.376;2022-09-12T04:57:09;12.40;99.90
56374;DHT22;58212;47.034;7.376;2022-09-12T04:59:37;12.60;99.90
56374;DHT22;58212;47.034;7.376;2022-09-12T05:02:05;12.60;99.90
56374;DHT22;58212;47.034;7.376;2022-09-12T05:04:33;12.60;99.90
56374;DHT22;58212;47.034;7.376;2022-09-12T05:07:03;12.60;99.90
56374;DHT22;58212;47.034;7.376;2022-09-12T05:09:30;12.60;99.90
56374;DHT22;58212;47.034;7.376;2022-09-12T05:11:57;12.60;99.90
56374;DHT22;58212;47.034;7.376;2022-09-12T05:14:25;12.60;99.90
56374;DHT22;58212;47.034;7.376;2022-09-12T05:16:52;12.70;99.90
56374;DHT22;58212;47.034;7.376;2022-09-12T05:19:22;13.30;99.90
56374;DHT22;58212;47.034;7.376;2022-09-12T05:21:49;14.30;99.90
56374;DHT22;58212;47.034;7.376;2022-09-12T05:24:16;15.40;99.90
56374;DHT22;58212;47.034;7.376;2022-09-12T05:26:43;16.00;99.90
56374;DHT22;58212;47.034;7.376;2022-09-12T05:29:10;16.50;99.90
56374;DHT22;58212;47.034;7.376;2022-09-12T05:31:38;16.90;99.90
56374;DHT22;58212;47.034;7.376;2022-09-12T05:34:05;17.40;99.90
56374;DHT22;58212;47.034;7.376;2022-09-12T05:36:36;17.70;99.90
56374;DHT22;58212;47.034;7.376;2022-09-12T05:39:03;18.10;99.90
56374;DHT22;58212;47.034;7.376;2022-09-12T05:41:31;18.90;99.90
56374;DHT22;58212;47.034;7.376;2022-09-12T05:44:00;19.00;99.90
56374;DHT22;58212;47.034;7.376;2022-09-12T05:46:30;19.30;99.90
56374;DHT22;58212;47.034;7.376;2022-09-12T05:49:02;18.20;99.90
56374;DHT22;58212;47.034;7.376;2022-09-12T05:51:32;16.80;99.90
56374;DHT22;58212;47.034;7.376;2022-09-12T05:54:01;16.60;99.90
56374;DHT22;58212;47.034;7.376;2022-09-12T05:56:30;15.70;99.90
56374;DHT22;58212;47.034;7.376;2022-09-12T05:59:01;15.50;99.90
56374;DHT22;58212;47.034;7.376;2022-09-12T06:01:30;14.80;99.90
56374;DHT22;58212;47.034;7.376;2022-09-12T06:03:59;14.70;99.90
56374;DHT22;58212;47.034;7.376;2022-09-12T06:06:28;14.70;99.90
56374;DHT22;58212;47.034;7.376;2022-09-12T06:08:57;14.50;99.90
56374;DHT22;58212;47.034;7.376;2022-09-12T06:11:27;14.30;99.90
56374;DHT22;58212;47.034;7.376;2022-09-12T06:13:55;14.50;99.90
56374;DHT22;58212;47.034;7.376;2022-09-12T06:16:26;14.10;99.90
56374;DHT22;58212;47.034;7.376;2022-09-12T06:18:55;13.90;99.90
56374;DHT22;58212;47.034;7.376;2022-09-12T06:21:23;13.80;99.90
56374;DHT22;58212;47.034;7.376;2022-09-12T06:23:53;13.50;99.90
56374;DHT22;58212;47.034;7.376;2022-09-12T06:26:20;13.60;99.90
56374;DHT22;58212;47.034;7.376;2022-09-12T06:28:52;13.70;99.90
56374;DHT22;58212;47.034;7.376;2022-09-12T06:31:21;13.70;99.90
56374;DHT22;58212;47.034;7.376;2022-09-12T06:33:51;13.70;99.90
56374;DHT22;58212;47.034;7.376;2022-09-12T06:36:22;13.60;99.90
56374;DHT22;58212;47.034;7.376;2022-09-12T06:38:53;13.60;99.90
56374;DHT22;58212;47.034;7.376;2022-09-12T06:41:22;13.80;99.90
56374;DHT22;58212;47.034;7.376;2022-09-12T06:43:51;14.30;99.90
56374;DHT22;58212;47.034;7.376;2022-09-12T06:46:18;17.10;99.90
56374;DHT22;58212;47.034;7.376;2022-09-12T06:48:46;19.30;99.90
56374;DHT22;58212;47.034;7.376;2022-09-12T06:51:15;20.10;99.90
56374;DHT22;58212;47.034;7.376;2022-09-12T06:53:42;21.30;99.90
56374;DHT22;58212;47.034;7.376;2022-09-12T06:56:11;21.60;99.90
56374;DHT22;58212;47.034;7.376;2022-09-12T06:58:39;21.80;99.90
56374;DHT22;58212;47.034;7.376;2022-09-12T07:01:09;22.20;99.90
56374;DHT22;58212;47.034;7.376;2022-09-12T07:03:37;22.90;99.90
56374;DHT22;58212;47.034;7.376;2022-09-12T07:06:07;23.00;99.90
56374;DHT22;58212;47.034;7.376;2022-09-12T07:08:35;21.70;99.90
56374;DHT22;58212;47.034;7.376;2022-09-12T07:11:09;22.40;99.90
56374;DHT22;58212;47.034;7.376;2022-09-12T07:13:37;22.00;99.90
56374;DHT22;58212;47.034;7.376;2022-09-12T07:16:04;22.00;99.90
56374;DHT22;58212;47.034;7.376;2022-09-12T07:18:36;21.30;99.90
56374;DHT22;58212;47.034;7.376;2022-09-12T07:21:05;18.60;99.90
56374;DHT22;58212;47.034;7.376;2022-09-12T07:23:35;17.80;99.90
56374;DHT22;58212;47.034;7.376;2022-09-12T07:26:03;17.40;99.90
56374;DHT22;58212;47.034;7.376;2022-09-12T07:28:33;17.10;99.90
56374;DHT22;58212;47.034;7.376;2022-09-12T07:31:05;17.20;99.90
56374;DHT22;58212;47.034;7.376;2022-09-12T07:33:34;16.90;99.90
56374;DHT22;58212;47.034;7.376;2022-09-12T07:36:03;16.90;99.90
56374;DHT22;58212;47.034;7.376;2022-09-12T07:38:34;17.10;99.90
56374;DHT22;58212;47.034;7.376;2022-09-12T07:41:09;17.90;99.90
56374;DHT22;58212;47.034;7.376;2022-09-12T07:43:39;17.30;99.90
56374;DHT22;58212;47.034;7.376;2022-09-12T07:46:06;17.70;99.90
56374;DHT22;58212;47.034;7.376;2022-09-12T07:48:38;18.00;99.90
56374;DHT22;58212;47.034;7.376;2022-09-12T07:51:07;17.90;99.90
56374;DHT22;58212;47.034;7.376;2022-09-12T07:53:37;18.00;99.90
56374;DHT22;58212;47.034;7.376;2022-09-12T07:56:06;18.20;99.90
56374;DHT22;58212;47.034;7.376;2022-09-12T07:58:37;18.30;99.90
56374;DHT22;58212;47.034;7.376;2022-09-12T08:01:06;18.40;99.90
56374;DHT22;58212;47.034;7.376;2022-09-12T08:03:33;18.00;99.90
56374;DHT22;58212;47.034;7.376;2022-09-12T08:06:05;18.40;99.90
56374;DHT22;58212;47.034;7.376;2022-09-12T08:08:35;18.70;99.90
56374;DHT22;58212;47.034;7.376;2022-09-12T08:11:04;18.80;99.90
56374;DHT22;58212;47.034;7.376;2022-09-12T08:13:35;18.50;99.90
56374;DHT22;58212;47.034;7.376;2022-09-12T08:16:04;18.70;99.90
56374;DHT22;58212;47.034;7.376;2022-09-12T08:18:33;18.80;99.90
56374;DHT22;58212;47.034;7.376;2022-09-12T08:21:02;19.10;99.90
56374;DHT22;58212;47.034;7.376;2022-09-12T08:23:32;19.30;99.90
56374;DHT22;58212;47.034;7.376;2022-09-12T08:26:00;19.20;99.90
56374;DHT22;58212;47.034;7.376;2022-09-12T08:28:28;19.00;99.90
56374;DHT22;58212;47.034;7.376;2022-09-12T08:30:59;18.90;99.90
56374;DHT22;58212;47.034;7.376;2022-09-12T08:33:30;18.90;99.90
56374;DHT22;58212;47.034;7.376;2022-09-12T08:36:05;19.10;99.90
56374;DHT22;58212;47.034;7.376;2022-09-12T08:38:34;19.00;99.90
56374;DHT22;58212;47.034;7.376;2022-09-12T08:41:06;19.20;99.90
56374;DHT22;58212;47.034;7.376;2022-09-12T08:43:51;19.30;99.90
56374;DHT22;58212;47.034;7.376;2022-09-12T08:46:23;19.30;99.90
56374;DHT22;58212;47.034;7.376;2022-09-12T08:48:55;19.30;99.90
56374;DHT22;58212;47.034;7.376;2022-09-12T08:51:23;19.00;99.90
56374;DHT22;58212;47.034;7.376;2022-09-12T08:53:52;19.30;99.90
56374;DHT22;58212;47.034;7.376;2022-09-12T08:56:22;19.40;99.90
56374;DHT22;58212;47.034;7.376;2022-09-12T08:58:50;19.60;99.90
56374;DHT22;58212;47.034;7.376;2022-09-12T09:01:27;19.80;99.90
56374;DHT22;58212;47.034;7.376;2022-09-12T09:04:23;20.10;99.90
56374;DHT22;58212;47.034;7.376;2022-09-12T09:07:16;19.70;99.90
56374;DHT22;58212;47.034;7.376;2022-09-12T09:10:02;19.80;99.90
56374;DHT22;58212;47.034;7.376;2022-09-12T09:12:42;20.00;99.90
56374;DHT22;58212;47.034;7.376;2022-09-12T09:15:32;20.20;99.90
56374;DHT22;58212;47.034;7.376;2022-09-12T09:18:10;19.90;99.90
56374;DHT22;58212;47.034;7.376;2022-09-12T09:20:40;19.90;99.90
56374;DHT22;58212;47.034;7.376;2022-09-12T09:23:12;20.10;99.90
56374;DHT22;58212;47.034;7.376;2022-09-12T09:25:47;19.90;99.90
56374;DHT22;58212;47.034;7.376;2022-09-12T09:28:19;19.80;99.90
56374;DHT22;58212;47.034;7.376;2022-09-12T09:30:47;20.20;99.90
56374;DHT22;58212;47.034;7.376;2022-09-12T09:33:20;20.40;99.90
56374;DHT22;58212;47.034;7.376;2022-09-12T09:35:54;20.00;99.90
56374;DHT22;58212;47.034;7.376;2022-09-12T09:38:24;20.10;99.90
56374;DHT22;58212;47.034;7.376;2022-09-12T09:41:10;20.70;99.90
56374;DHT22;58212;47.034;7.376;2022-09-12T09:43:43;20.60;99.90
56374;DHT22;58212;47.034;7.376;2022-09-12T09:46:11;20.90;99.90
56374;DHT22;58212;47.034;7.376;2022-09-12T09:48:42;20.60;99.90
56374;DHT22;58212;47.034;7.376;2022-09-12T09:51:10;20.90;99.90
56374;DHT22;58212;47.034;7.376;2022-09-12T09:53:42;20.70;99.90
56374;DHT22;58212;47.034;7.376;2022-09-12T09:56:21;20.80;99.90
56374;DHT22;58212;47.034;7.376;2022-09-12T09:58:52;20.80;99.90
56374;DHT22;58212;47.034;7.376;2022-09-12T10:01:19;20.70;99.90
56374;DHT22;58212;47.034;7.376;2022-09-12T10:03:50;21.10;99.90
56374;DHT22;58212;47.034;7.376;2022-09-12T10:06:24;21.20;99.90
56374;DHT22;58212;47.034;7.376;2022-09-12T10:09:09;21.20;99.90
56374;DHT22;58212;47.034;7.376;2022-09-12T10:11:44;21.00;99.90
56374;DHT22;58212;47.034;7.376;2022-09-12T10:14:33;21.00;99.90
56374;DHT22;58212;47.034;7.376;2022-09-12T10:17:08;21.20;99.90
56374;DHT22;58212;47.034;7.376;2022-09-12T10:19:47;21.20;99.90
56374;DHT22;58212;47.034;7.376;2022-09-12T10:22:18;21.30;99.90
56374;DHT22;58212;47.034;7.376;2022-09-12T10:24:49;21.50;99.90
56374;DHT22;58212;47.034;7.376;2022-09-12T10:27:21;21.70;99.90
56374;DHT22;58212;47.034;7.376;2022-09-12T10:29:51;21.70;99.90
56374;DHT22;58212;47.034;7.376;2022-09-12T10:32:25;21.60;99.90
56374;DHT22;58212;47.034;7.376;2022-09-12T10:34:59;21.90;99.90
56374;DHT22;58212;47.034;7.376;2022-09-12T10:37:30;22.10;99.90
56374;DHT22;58212;47.034;7.376;2022-09-12T10:39:59;22.00;99.90
56374;DHT22;58212;47.034;7.376;2022-09-12T10:42:50;21.80;99.90
56374;DHT22;58212;47.034;7.376;2022-09-12T10:45:22;21.80;99.90
56374;DHT22;58212;47.034;7.376;2022-09-12T10:47:54;21.70;99.90
56374;DHT22;58212;47.034;7.376;2022-09-12T10:50:26;21.60;99.90
56374;DHT22;58212;47.034;7.376;2022-09-12T10:52:54;21.80;99.90
56374;DHT22;58212;47.034;7.376;2022-09-12T10:55:31;22.00;99.90
56374;DHT22;58212;47.034;7.376;2022-09-12T10:58:16;22.40;99.90
56374;DHT22;58212;47.034;7.376;2022-09-12T11:00:53;22.30;99.90
56374;DHT22;58212;47.034;7.376;2022-09-12T11:03:36;22.30;99.90
56374;DHT22;58212;47.034;7.376;2022-09-12T11:06:07;22.30;99.90
56374;DHT22;58212;47.034;7.376;2022-09-12T11:08:54;22.40;99.90
56374;DHT22;58212;47.034;7.376;2022-09-12T11:11:37;22.30;99.90
56374;DHT22;58212;47.034;7.376;2022-09-12T11:14:30;22.70;99.90
56374;DHT22;58212;47.034;7.376;2022-09-12T11:17:07;22.60;99.90
56374;DHT22;58212;47.034;7.376;2022-09-12T11:20:11;22.70;99.90
56374;DHT22;58212;47.034;7.376;2022-09-12T11:23:02;22.70;99.90
56374;DHT22;58212;47.034;7.376;2022-09-12T11:25:34;22.60;99.90
56374;DHT22;58212;47.034;7.376;2022-09-12T11:28:31;22.70;99.90
56374;DHT22;58212;47.034;7.376;2022-09-12T11:31:12;22.60;99.90
56374;DHT22;58212;47.034;7.376;2022-09-12T11:33:45;22.70;99.90
56374;DHT22;58212;47.034;7.376;2022-09-12T11:36:22;22.70;99.90
56374;DHT22;58212;47.034;7.376;2022-09-12T11:38:57;22.80;99.90
56374;DHT22;58212;47.034;7.376;2022-09-12T11:41:29;22.90;99.90
56374;DHT22;58212;47.034;7.376;2022-09-12T11:44:02;23.20;99.90
56374;DHT22;58212;47.034;7.376;2022-09-12T11:46:36;23.20;99.90
56374;DHT22;58212;47.034;7.376;2022-09-12T11:49:10;23.30;99.90
56374;DHT22;58212;47.034;7.376;2022-09-12T11:51:43;23.40;99.90
56374;DHT22;58212;47.034;7.376;2022-09-12T11:54:19;23.20;99.90
56374;DHT22;58212;47.034;7.376;2022-09-12T11:56:52;23.30;99.90
56374;DHT22;58212;47.034;7.376;2022-09-12T11:59:30;23.80;99.90
56374;DHT22;58212;47.034;7.376;2022-09-12T12:02:01;23.60;99.90
56374;DHT22;58212;47.034;7.376;2022-09-12T12:04:36;23.70;99.90
56374;DHT22;58212;47.034;7.376;2022-09-12T12:07:08;23.70;99.90
56374;DHT22;58212;47.034;7.376;2022-09-12T12:09:44;23.70;99.90
56374;DHT22;58212;47.034;7.376;2022-09-12T12:12:15;23.60;99.90
56374;DHT22;58212;47.034;7.376;2022-09-12T12:14:46;23.40;99.90
56374;DHT22;58212;47.034;7.376;2022-09-12T12:17:17;23.80;99.90
56374;DHT22;58212;47.034;7.376;2022-09-12T12:19:46;23.90;99.90
56374;DHT22;58212;47.034;7.376;2022-09-12T12:22:23;23.90;99.90
56374;DHT22;58212;47.034;7.376;2022-09-12T12:28:00;24.30;99.90
56374;DHT22;58212;47.034;7.376;2022-09-12T12:30:57;24.00;99.90
56374;DHT22;58212;47.034;7.376;2022-09-12T12:33:52;23.90;99.90
56374;DHT22;58212;47.034;7.376;2022-09-12T12:36:36;23.70;99.90
56374;DHT22;58212;47.034;7.376;2022-09-12T12:42:07;23.80;99.90
56374;DHT22;58212;47.034;7.376;2022-09-12T12:44:47;23.80;99.90
56374;DHT22;58212;47.034;7.376;2022-09-12T12:47:17;23.90;99.90
56374;DHT22;58212;47.034;7.376;2022-09-12T12:49:51;24.10;99.90
56374;DHT22;58212;47.034;7.376;2022-09-12T12:52:19;24.30;99.90
56374;DHT22;58212;47.034;7.376;2022-09-12T12:54:51;24.50;99.90
56374;DHT22;58212;47.034;7.376;2022-09-12T12:57:38;24.60;99.90
56374;DHT22;58212;47.034;7.376;2022-09-12T13:00:23;24.80;99.90
56374;DHT22;58212;47.034;7.376;2022-09-12T13:02:57;24.40;99.90
56374;DHT22;58212;47.034;7.376;2022-09-12T13:05:29;24.60;99.90
56374;DHT22;58212;47.034;7.376;2022-09-12T13:08:00;24.50;99.90
56374;DHT22;58212;47.034;7.376;2022-09-12T13:10:29;24.50;99.90
56374;DHT22;58212;47.034;7.376;2022-09-12T13:12:58;24.40;99.90
56374;DHT22;58212;47.034;7.376;2022-09-12T13:15:47;24.40;99.90
56374;DHT22;58212;47.034;7.376;2022-09-12T13:18:20;24.20;99.90
56374;DHT22;58212;47.034;7.376;2022-09-12T13:20:54;24.20;99.90
56374;DHT22;58212;47.034;7.376;2022-09-12T13:23:28;24.30;99.90
56374;DHT22;58212;47.034;7.376;2022-09-12T13:25:59;24.50;99.90
56374;DHT22;58212;47.034;7.376;2022-09-12T13:28:27;24.40;99.90
56374;DHT22;58212;47.034;7.376;2022-09-12T13:30:58;24.40;99.90
56374;DHT22;58212;47.034;7.376;2022-09-12T13:33:34;24.50;99.90
56374;DHT22;58212;47.034;7.376;2022-09-12T13:39:13;24.30;99.90
56374;DHT22;58212;47.034;7.376;2022-09-12T13:44:43;24.40;99.90
56374;DHT22;58212;47.034;7.376;2022-09-12T13:47:13;24.30;99.90
56374;DHT22;58212;47.034;7.376;2022-09-12T13:49:41;24.10;99.90
56374;DHT22;58212;47.034;7.376;2022-09-12T13:52:15;24.10;99.90
56374;DHT22;58212;47.034;7.376;2022-09-12T13:54:45;24.10;99.90
56374;DHT22;58212;47.034;7.376;2022-09-12T13:57:28;24.10;99.90
56374;DHT22;58212;47.034;7.376;2022-09-12T13:59:57;24.20;99.90
56374;DHT22;58212;47.034;7.376;2022-09-12T14:02:27;24.10;99.90
56374;DHT22;58212;47.034;7.376;2022-09-12T14:04:55;24.30;99.90
56374;DHT22;58212;47.034;7.376;2022-09-12T14:07:45;24.10;99.90
56374;DHT22;58212;47.034;7.376;2022-09-12T14:10:21;23.90;99.90
56374;DHT22;58212;47.034;7.376;2022-09-12T14:12:49;23.80;99.90
56374;DHT22;58212;47.034;7.376;2022-09-12T14:15:18;23.90;99.90
56374;DHT22;58212;47.034;7.376;2022-09-12T14:17:49;24.00;99.90
56374;DHT22;58212;47.034;7.376;2022-09-12T14:20:19;23.90;99.90
56374;DHT22;58212;47.034;7.376;2022-09-12T14:22:49;23.80;99.90
56374;DHT22;58212;47.034;7.376;2022-09-12T14:25:19;23.90;99.90
56374;DHT22;58212;47.034;7.376;2022-09-12T14:27:47;24.00;99.90
56374;DHT22;58212;47.034;7.376;2022-09-12T14:30:22;23.90;99.90
56374;DHT22;58212;47.034;7.376;2022-09-12T14:35:46;24.00;99.90
56374;DHT22;58212;47.034;7.376;2022-09-12T14:38:21;24.00;99.90
56374;DHT22;58212;47.034;7.376;2022-09-12T14:40:59;24.00;99.90
56374;DHT22;58212;47.034;7.376;2022-09-12T14:43:27;23.90;99.90
56374;DHT22;58212;47.034;7.376;2022-09-12T14:45:57;23.90;99.90
56374;DHT22;58212;47.034;7.376;2022-09-12T14:48:26;23.70;99.90
56374;DHT22;58212;47.034;7.376;2022-09-12T14:50:54;23.60;99.90
56374;DHT22;58212;47.034;7.376;2022-09-12T14:53:29;23.50;99.90
56374;DHT22;58212;47.034;7.376;2022-09-12T14:56:04;23.60;99.90
56374;DHT22;58212;47.034;7.376;2022-09-12T14:58:34;23.60;99.90
56374;DHT22;58212;47.034;7.376;2022-09-12T15:01:24;23.50;99.90
56374;DHT22;58212;47.034;7.376;2022-09-12T15:03:55;23.40;99.90
56374;DHT22;58212;47.034;7.376;2022-09-12T15:06:26;23.30;99.90
56374;DHT22;58212;47.034;7.376;2022-09-12T15:08:57;23.30;99.90
56374;DHT22;58212;47.034;7.376;2022-09-12T15:11:25;23.20;99.90
56374;DHT22;58212;47.034;7.376;2022-09-12T15:13:52;23.10;99.90
56374;DHT22;58212;47.034;7.376;2022-09-12T15:16:19;23.10;99.90
56374;DHT22;58212;47.034;7.376;2022-09-12T15:18:46;23.00;99.90
56374;DHT22;58212;47.034;7.376;2022-09-12T15:21:16;23.00;99.90
56374;DHT22;58212;47.034;7.376;2022-09-12T15:23:46;23.00;99.90
56374;DHT22;58212;47.034;7.376;2022-09-12T15:26:18;23.00;99.90
56374;DHT22;58212;47.034;7.376;2022-09-12T15:28:46;22.90;99.90
56374;DHT22;58212;47.034;7.376;2022-09-12T15:31:25;22.80;99.90
56374;DHT22;58212;47.034;7.376;2022-09-12T15:33:53;22.70;99.90
56374;DHT22;58212;47.034;7.376;2022-09-12T15:36:22;22.70;99.90
56374;DHT22;58212;47.034;7.376;2022-09-12T15:38:50;22.60;99.90
56374;DHT22;58212;47.034;7.376;2022-09-12T15:41:20;22.50;99.90
56374;DHT22;58212;47.034;7.376;2022-09-12T15:43:48;22.50;99.90
56374;DHT22;58212;47.034;7.376;2022-09-12T15:46:16;22.40;99.90
56374;DHT22;58212;47.034;7.376;2022-09-12T15:48:44;22.20;99.90
56374;DHT22;58212;47.034;7.376;2022-09-12T15:51:11;22.00;99.90
56374;DHT22;58212;47.034;7.376;2022-09-12T15:53:41;22.00;99.90
56374;DHT22;58212;47.034;7.376;2022-09-12T15:56:08;22.00;99.90
56374;DHT22;58212;47.034;7.376;2022-09-12T15:58:36;21.90;99.90
56374;DHT22;58212;47.034;7.376;2022-09-12T16:01:04;21.90;99.90
56374;DHT22;58212;47.034;7.376;2022-09-12T16:03:31;21.90;99.90
56374;DHT22;58212;47.034;7.376;2022-09-12T16:05:59;21.80;99.90
56374;DHT22;58212;47.034;7.376;2022-09-12T16:08:28;21.80;99.90
56374;DHT22;58212;47.034;7.376;2022-09-12T16:10:58;21.80;99.90
56374;DHT22;58212;47.034;7.376;2022-09-12T16:13:26;21.70;99.90
56374;DHT22;58212;47.034;7.376;2022-09-12T16:15:57;21.70;99.90
56374;DHT22;58212;47.034;7.376;2022-09-12T16:18:25;21.60;99.90